createdAt,value
2018-05-23T00:00:37.985Z,14.00
2018-05-23T00:03:04.711Z,14.50
2018-05-23T00:05:31.439Z,14.10
2018-05-23T00:07:58.158Z,15.07
2018-05-23T00:10:24.906Z,14.10
2018-05-23T00:12:51.634Z,13.90
2018-05-23T00:15:18.377Z,14.43
2018-05-23T00:17:45.115Z,14.90
2018-05-23T00:20:11.857Z,15.77
2018-05-23T00:22:38.580Z,16.00
2018-05-23T00:25:05.313Z,14.63
2018-05-23T00:27:32.040Z,14.73
2018-05-23T00:29:58.765Z,15.27
2018-05-23T00:32:25.497Z,14.60
2018-05-23T00:34:52.237Z,14.43
2018-05-23T00:37:18.956Z,13.30
2018-05-23T00:39:45.708Z,14.43
2018-05-23T00:42:12.428Z,15.03
2018-05-23T00:44:39.174Z,14.13
2018-05-23T00:47:05.906Z,14.33
2018-05-23T00:49:32.641Z,14.73
2018-05-23T00:51:59.421Z,15.03
2018-05-23T00:54:26.158Z,15.47
2018-05-23T00:56:52.892Z,15.53
2018-05-23T00:59:19.641Z,13.40
2018-05-23T01:01:46.383Z,15.17
2018-05-23T01:04:13.127Z,16.57
2018-05-23T01:06:39.869Z,15.43
2018-05-23T01:09:06.626Z,15.13
2018-05-23T01:11:33.377Z,16.17
2018-05-23T01:14:00.103Z,15.20
2018-05-23T01:16:26.837Z,15.47
2018-05-23T01:18:53.584Z,15.03
2018-05-23T01:21:20.326Z,15.57
2018-05-23T01:23:47.073Z,16.20
2018-05-23T01:26:13.804Z,15.20
2018-05-23T01:28:40.533Z,15.47
2018-05-23T01:31:07.249Z,14.70
2018-05-23T01:33:33.984Z,16.00
2018-05-23T01:36:00.720Z,15.50
2018-05-23T01:38:27.453Z,16.20
2018-05-23T01:40:54.193Z,16.17
2018-05-23T01:43:20.922Z,16.37
2018-05-23T01:45:47.634Z,16.40
2018-05-23T01:48:14.355Z,17.30
2018-05-23T01:50:41.076Z,15.63
2018-05-23T01:53:07.805Z,15.53
2018-05-23T01:55:34.529Z,15.30
2018-05-23T01:58:01.257Z,15.83
2018-05-23T02:00:27.994Z,15.43
2018-05-23T02:02:55.036Z,16.50
2018-05-23T02:05:21.775Z,17.17
2018-05-23T02:07:48.526Z,17.93
2018-05-23T02:10:15.256Z,17.50
2018-05-23T02:12:41.980Z,15.97
2018-05-23T02:15:08.718Z,16.77
2018-05-23T02:17:35.471Z,16.50
2018-05-23T02:20:02.197Z,16.60
2018-05-23T02:22:28.928Z,17.53
2018-05-23T02:24:55.673Z,16.67
2018-05-23T02:27:22.432Z,17.97
2018-05-23T02:29:49.154Z,16.10
2018-05-23T02:32:15.883Z,15.63
2018-05-23T02:34:42.606Z,16.40
2018-05-23T02:37:09.349Z,16.93
2018-05-23T02:39:36.073Z,17.30
2018-05-23T02:42:02.829Z,16.77
2018-05-23T02:44:29.556Z,17.10
2018-05-23T02:46:56.403Z,16.80
2018-05-23T02:49:23.110Z,16.60
2018-05-23T02:51:49.841Z,16.50
2018-05-23T02:54:16.569Z,17.90
2018-05-23T02:56:43.310Z,18.53
2018-05-23T02:59:10.033Z,16.97
2018-05-23T03:01:36.773Z,17.70
2018-05-23T03:04:03.509Z,17.70
2018-05-23T03:06:30.256Z,19.53
2018-05-23T03:08:57.001Z,18.23
2018-05-23T03:11:23.732Z,18.47
2018-05-23T03:13:50.449Z,17.80
2018-05-23T03:16:17.193Z,19.17
2018-05-23T03:18:43.919Z,19.10
2018-05-23T03:21:10.648Z,17.67
2018-05-23T03:23:37.373Z,18.13
2018-05-23T03:26:04.154Z,17.47
2018-05-23T03:28:30.889Z,16.13
2018-05-23T03:30:57.614Z,17.97
2018-05-23T03:33:24.342Z,17.13
2018-05-23T03:35:51.073Z,15.83
2018-05-23T03:38:17.801Z,17.40
2018-05-23T03:40:44.545Z,16.87
2018-05-23T03:43:11.280Z,16.00
2018-05-23T03:45:38.035Z,16.90
2018-05-23T03:48:04.756Z,16.43
2018-05-23T03:50:31.488Z,16.20
2018-05-23T03:52:58.211Z,16.83
2018-05-23T03:55:25.019Z,16.77
2018-05-23T03:57:51.698Z,17.07
2018-05-23T04:00:24.302Z,17.57
2018-05-23T04:02:56.848Z,16.87
2018-05-23T04:05:29.441Z,17.30
2018-05-23T04:07:56.185Z,16.63
2018-05-23T04:10:22.939Z,16.37
2018-05-23T04:12:49.689Z,15.83
2018-05-23T04:15:16.410Z,17.10
2018-05-23T04:17:43.148Z,16.47
2018-05-23T04:20:09.905Z,16.30
2018-05-23T04:22:36.640Z,16.10
2018-05-23T04:25:03.366Z,16.33
2018-05-23T04:27:30.075Z,16.37
2018-05-23T04:29:56.820Z,17.03
2018-05-23T04:32:23.564Z,17.00
2018-05-23T04:34:50.292Z,17.37
2018-05-23T04:37:17.021Z,15.80
2018-05-23T04:39:43.770Z,16.50
2018-05-23T04:42:10.486Z,16.87
2018-05-23T04:44:37.215Z,19.33
2018-05-23T04:47:03.954Z,17.07
2018-05-23T04:49:30.677Z,19.00
2018-05-23T04:51:57.434Z,19.20
2018-05-23T04:54:24.155Z,18.80
2018-05-23T04:56:50.885Z,18.07
2018-05-23T04:59:17.623Z,17.57
2018-05-23T05:01:44.339Z,20.00
2018-05-23T05:04:11.057Z,19.13
2018-05-23T05:06:37.806Z,18.20
2018-05-23T05:09:04.573Z,16.17
2018-05-23T05:11:31.304Z,15.90
2018-05-23T05:13:58.035Z,18.27
2018-05-23T05:16:24.800Z,14.63
2018-05-23T05:18:51.529Z,15.70
2018-05-23T05:21:18.283Z,16.10
2018-05-23T05:23:45.006Z,15.70
2018-05-23T05:26:11.736Z,13.47
2018-05-23T05:28:38.533Z,14.83
2018-05-23T05:31:05.221Z,14.80
2018-05-23T05:33:31.949Z,15.10
2018-05-23T05:35:58.705Z,13.60
2018-05-23T05:38:25.437Z,13.70
2018-05-23T05:40:52.192Z,13.40
2018-05-23T05:43:18.915Z,13.10
2018-05-23T05:45:45.651Z,14.30
2018-05-23T05:48:12.380Z,13.90
2018-05-23T05:50:39.125Z,13.07
2018-05-23T05:53:05.859Z,13.17
2018-05-23T05:55:32.601Z,13.23
2018-05-23T05:57:59.351Z,13.23
2018-05-23T06:00:26.152Z,13.33
2018-05-23T06:02:53.795Z,13.70
2018-05-23T06:05:20.518Z,11.80
2018-05-23T06:07:47.242Z,12.90
2018-05-23T06:10:13.976Z,12.10
2018-05-23T06:12:40.724Z,12.60
2018-05-23T06:15:07.454Z,11.80
2018-05-23T06:17:34.207Z,12.00
2018-05-23T06:20:00.932Z,10.63
2018-05-23T06:22:27.668Z,12.37
2018-05-23T06:24:54.405Z,11.80
2018-05-23T06:27:21.147Z,11.70
2018-05-23T06:29:47.877Z,12.77
2018-05-23T06:32:14.630Z,12.77
2018-05-23T06:34:41.361Z,11.17
2018-05-23T06:37:08.100Z,12.80
2018-05-23T06:39:34.823Z,12.03
2018-05-23T06:42:01.556Z,11.50
2018-05-23T06:44:30.780Z,11.63
2018-05-23T06:47:00.306Z,11.53
2018-05-23T06:49:27.211Z,11.73
2018-05-23T06:51:53.965Z,12.27
2018-05-23T06:54:20.693Z,11.43
2018-05-23T06:56:47.445Z,10.67
2018-05-23T06:59:14.173Z,11.87
2018-05-23T07:01:40.920Z,11.03
2018-05-23T07:04:07.659Z,12.00
2018-05-23T07:06:34.432Z,12.13
2018-05-23T07:09:01.136Z,11.80
2018-05-23T07:11:27.870Z,12.00
2018-05-23T07:13:54.606Z,11.43
2018-05-23T07:16:21.361Z,11.53
2018-05-23T07:18:48.095Z,11.33
2018-05-23T07:21:14.860Z,10.93
2018-05-23T07:23:46.369Z,10.10
2018-05-23T07:26:13.230Z,11.17
2018-05-23T07:28:39.961Z,10.70
2018-05-23T07:31:06.704Z,9.50
2018-05-23T07:33:34.609Z,10.47
2018-05-23T07:36:11.366Z,9.93
2018-05-23T07:38:56.916Z,9.20
2018-05-23T07:41:32.085Z,9.17
2018-05-23T07:44:00.991Z,9.80
2018-05-23T07:46:28.595Z,9.97
2018-05-23T07:48:55.342Z,8.93
2018-05-23T07:51:22.240Z,9.07
2018-05-23T07:53:49.525Z,9.33
2018-05-23T07:56:16.267Z,10.20
2018-05-23T07:58:43.069Z,9.17
2018-05-23T08:01:09.786Z,8.90
2018-05-23T08:03:36.638Z,9.63
2018-05-23T08:06:03.399Z,9.63
2018-05-23T08:08:30.124Z,7.47
2018-05-23T08:10:56.840Z,7.53
2018-05-23T08:13:23.570Z,8.40
2018-05-23T08:15:50.293Z,8.33
2018-05-23T08:18:17.027Z,9.20
2018-05-23T08:20:43.767Z,9.17
2018-05-23T08:23:10.490Z,8.53
2018-05-23T08:25:37.212Z,8.63
2018-05-23T08:28:03.948Z,7.50
2018-05-23T08:30:30.709Z,8.20
2018-05-23T08:32:57.436Z,7.70
2018-05-23T08:35:24.169Z,7.87
2018-05-23T08:37:50.899Z,8.43
2018-05-23T08:40:17.630Z,6.83
2018-05-23T08:42:44.357Z,6.87
2018-05-23T08:45:11.081Z,6.43
2018-05-23T08:47:37.791Z,6.63
2018-05-23T08:50:04.595Z,7.13
2018-05-23T08:52:31.261Z,6.20
2018-05-23T08:54:57.972Z,6.00
2018-05-23T08:57:24.689Z,5.80
2018-05-23T08:59:51.423Z,6.60
2018-05-23T09:02:18.137Z,6.57
2018-05-23T09:04:44.906Z,6.57
2018-05-23T09:07:11.643Z,7.83
2018-05-23T09:09:38.372Z,7.43
2018-05-23T09:12:05.098Z,7.27
2018-05-23T09:14:32.444Z,7.40
2018-05-23T09:16:59.763Z,6.53
2018-05-23T09:19:26.513Z,7.70
2018-05-23T09:21:53.241Z,7.27
2018-05-23T09:24:19.967Z,8.27
2018-05-23T09:26:46.697Z,7.80
2018-05-23T09:29:13.432Z,7.00
2018-05-23T09:31:40.164Z,7.30
2018-05-23T09:34:06.897Z,7.10
2018-05-23T09:36:33.647Z,7.17
2018-05-23T09:39:00.376Z,8.80
2018-05-23T09:41:27.139Z,7.40
2018-05-23T09:43:53.849Z,8.50
2018-05-23T09:46:20.881Z,7.40
2018-05-23T09:48:47.635Z,7.70
2018-05-23T09:51:14.370Z,7.10
2018-05-23T09:53:41.088Z,6.90
2018-05-23T09:56:07.823Z,7.30
2018-05-23T09:58:34.550Z,7.70
2018-05-23T10:01:01.304Z,7.80
2018-05-23T10:03:28.042Z,10.60
2018-05-23T10:05:54.792Z,10.57
2018-05-23T10:08:21.503Z,8.17
2018-05-23T10:10:48.243Z,8.80
2018-05-23T10:13:14.979Z,8.10
2018-05-23T10:15:41.721Z,8.70
2018-05-23T10:18:08.500Z,9.30
2018-05-23T10:20:35.246Z,10.00
2018-05-23T10:23:02.001Z,10.20
2018-05-23T10:25:28.799Z,9.70
2018-05-23T10:27:55.543Z,10.20
2018-05-23T10:30:22.272Z,9.77
2018-05-23T10:32:49.034Z,9.93
2018-05-23T10:35:15.756Z,9.20
2018-05-23T10:37:42.497Z,7.70
2018-05-23T10:40:09.229Z,9.23
2018-05-23T10:42:35.962Z,8.63
2018-05-23T10:45:02.710Z,8.40
2018-05-23T10:47:29.471Z,7.90
2018-05-23T10:49:56.198Z,8.30
2018-05-23T10:52:22.985Z,8.33
2018-05-23T10:54:49.706Z,8.13
2018-05-23T10:57:16.506Z,7.70
2018-05-23T10:59:43.207Z,7.60
2018-05-23T11:02:09.970Z,7.50
2018-05-23T11:04:36.703Z,7.80
2018-05-23T11:07:03.439Z,7.63
2018-05-23T11:09:30.169Z,6.90
2018-05-23T11:12:03.333Z,7.20
2018-05-23T11:14:30.071Z,6.53
2018-05-23T11:16:56.813Z,7.00
2018-05-23T11:19:23.552Z,7.20
2018-05-23T11:21:50.293Z,7.47
2018-05-23T11:24:17.021Z,7.57
2018-05-23T11:26:43.797Z,8.07
2018-05-23T11:29:10.531Z,7.90
2018-05-23T11:31:37.273Z,7.97
2018-05-23T11:34:04.028Z,8.10
2018-05-23T11:36:30.765Z,8.00
2018-05-23T11:38:57.529Z,8.23
2018-05-23T11:41:24.252Z,7.40
2018-05-23T11:43:50.986Z,7.40
2018-05-23T11:46:17.749Z,7.63
2018-05-23T11:48:44.488Z,7.40
2018-05-23T11:51:11.222Z,7.63
2018-05-23T11:53:37.971Z,7.30
2018-05-23T11:56:04.729Z,7.77
2018-05-23T11:58:31.454Z,7.60
2018-05-23T12:00:58.174Z,7.50
2018-05-23T12:03:24.910Z,7.10
2018-05-23T12:05:51.634Z,7.00
2018-05-23T12:08:18.364Z,7.17
2018-05-23T12:10:45.117Z,8.20
2018-05-23T12:13:11.844Z,7.30
2018-05-23T12:15:38.579Z,7.17
2018-05-23T12:18:05.301Z,6.87
2018-05-23T12:20:32.026Z,7.23
2018-05-23T12:22:58.775Z,7.63
2018-05-23T12:25:25.494Z,6.47
2018-05-23T12:27:52.216Z,7.00
2018-05-23T12:30:18.970Z,6.80
2018-05-23T12:32:45.688Z,6.07
2018-05-23T12:35:12.415Z,7.10
2018-05-23T12:37:39.144Z,5.57
2018-05-23T12:40:05.860Z,5.40
2018-05-23T12:42:32.590Z,5.80
2018-05-23T12:44:59.324Z,6.33
2018-05-23T12:47:26.050Z,6.20
2018-05-23T12:49:52.784Z,5.03
2018-05-23T12:52:19.511Z,5.27
2018-05-23T12:54:46.248Z,5.20
2018-05-23T12:57:13.016Z,5.17
2018-05-23T12:59:39.740Z,5.50
2018-05-23T13:02:06.460Z,5.00
2018-05-23T13:04:33.198Z,5.03
2018-05-23T13:06:59.920Z,4.73
2018-05-23T13:09:26.646Z,4.60
2018-05-23T13:11:53.386Z,5.10
2018-05-23T13:14:20.104Z,4.97
2018-05-23T13:16:46.835Z,5.90
2018-05-23T13:19:13.581Z,6.33
2018-05-23T13:21:40.323Z,4.77
2018-05-23T13:24:07.057Z,5.37
2018-05-23T13:26:33.781Z,5.70
2018-05-23T13:29:00.514Z,6.10
2018-05-23T13:31:27.221Z,4.70
2018-05-23T13:33:53.950Z,4.93
2018-05-23T13:36:20.697Z,4.83
2018-05-23T13:38:47.474Z,5.10
2018-05-23T13:41:14.186Z,4.67
2018-05-23T13:43:40.924Z,5.20
2018-05-23T13:46:07.637Z,5.07
2018-05-23T13:48:34.374Z,5.03
2018-05-23T13:51:01.108Z,4.83
2018-05-23T13:53:27.817Z,5.60
2018-05-23T13:55:54.574Z,5.20
2018-05-23T13:58:21.285Z,5.07
2018-05-23T14:00:48.007Z,5.30
2018-05-23T14:03:14.764Z,5.50
2018-05-23T14:05:41.493Z,5.67
2018-05-23T14:08:08.201Z,5.00
2018-05-23T14:10:35.100Z,5.20
2018-05-23T14:13:01.846Z,5.60
2018-05-23T14:15:28.560Z,5.27
2018-05-23T14:17:55.281Z,5.40
2018-05-23T14:20:22.012Z,5.30
2018-05-23T14:22:48.754Z,4.60
2018-05-23T14:25:15.497Z,5.03
2018-05-23T14:27:42.216Z,5.20
2018-05-23T14:30:08.941Z,5.00
2018-05-23T14:32:35.681Z,4.80
2018-05-23T14:35:02.399Z,5.80
2018-05-23T14:37:29.128Z,5.97
2018-05-23T14:39:55.869Z,5.53
2018-05-23T14:42:22.594Z,5.70
2018-05-23T14:44:49.347Z,6.10
2018-05-23T14:47:16.061Z,6.13
2018-05-23T14:49:42.783Z,6.00
2018-05-23T14:52:09.513Z,6.50
2018-05-23T14:54:36.684Z,5.90
2018-05-23T14:57:03.442Z,6.20
2018-05-23T14:59:30.192Z,6.50
2018-05-23T15:01:56.914Z,6.43
2018-05-23T15:04:24.113Z,6.20
2018-05-23T15:06:50.907Z,6.63
2018-05-23T15:09:17.632Z,7.10
2018-05-23T15:11:44.364Z,7.20
2018-05-23T15:14:11.098Z,7.13
2018-05-23T15:16:37.835Z,6.20
2018-05-23T15:19:04.588Z,6.87
2018-05-23T15:21:31.651Z,6.63
2018-05-23T15:23:58.501Z,6.90
2018-05-23T15:26:25.253Z,7.37
2018-05-23T15:28:52.000Z,6.70
2018-05-23T15:31:18.749Z,7.33
2018-05-23T15:33:45.473Z,6.17
2018-05-23T15:36:12.224Z,5.97
2018-05-23T15:38:38.964Z,6.50
2018-05-23T15:41:05.735Z,6.70
2018-05-23T15:43:32.747Z,6.77
2018-05-23T15:45:59.904Z,6.13
2018-05-23T15:48:26.730Z,5.33
2018-05-23T15:50:53.457Z,5.90
2018-05-23T15:53:20.227Z,6.07
2018-05-23T15:55:47.135Z,6.70
2018-05-23T15:58:13.908Z,6.33
2018-05-23T16:00:40.644Z,6.37
2018-05-23T16:03:07.414Z,6.83
2018-05-23T16:05:34.137Z,6.40
2018-05-23T16:08:00.873Z,6.50
2018-05-23T16:10:27.606Z,6.27
2018-05-23T16:12:54.351Z,5.90
2018-05-23T16:15:21.085Z,7.23
2018-05-23T16:17:47.812Z,7.83
2018-05-23T16:20:14.579Z,8.17
2018-05-23T16:22:41.308Z,8.60
2018-05-23T16:25:08.107Z,7.47
2018-05-23T16:27:34.858Z,7.70
2018-05-23T16:30:01.607Z,8.20
2018-05-23T16:32:28.337Z,7.83
2018-05-23T16:34:55.073Z,7.87
2018-05-23T16:37:21.887Z,6.77
2018-05-23T16:39:48.609Z,6.70
2018-05-23T16:42:15.423Z,6.90
2018-05-23T16:44:42.159Z,6.83
2018-05-23T16:47:08.905Z,7.07
2018-05-23T16:49:35.617Z,6.47
2018-05-23T16:52:02.390Z,7.13
2018-05-23T16:54:29.113Z,6.77
2018-05-23T16:56:55.840Z,6.60
2018-05-23T16:59:22.587Z,7.07
2018-05-23T17:01:49.332Z,8.33
2018-05-23T17:04:16.091Z,7.27
2018-05-23T17:06:42.859Z,7.63
2018-05-23T17:09:09.597Z,6.40
2018-05-23T17:11:36.336Z,6.83
2018-05-23T17:14:03.102Z,6.90
2018-05-23T17:16:29.818Z,6.93
2018-05-23T17:18:56.553Z,6.70
2018-05-23T17:21:23.298Z,6.67
2018-05-23T17:23:50.013Z,7.07
2018-05-23T17:26:16.748Z,7.00
2018-05-23T17:28:43.482Z,6.80
2018-05-23T17:31:10.234Z,6.90
2018-05-23T17:33:36.979Z,7.90
2018-05-23T17:36:03.761Z,7.63
2018-05-23T17:38:30.511Z,7.20
2018-05-23T17:40:57.490Z,7.10
2018-05-23T17:43:24.251Z,7.40
2018-05-23T17:45:51.087Z,6.93
2018-05-23T17:48:17.759Z,7.37
2018-05-23T17:50:44.510Z,7.33
2018-05-23T17:53:11.240Z,7.00
2018-05-23T17:55:37.978Z,8.37
2018-05-23T17:58:04.703Z,7.93
2018-05-23T18:00:31.477Z,7.90
2018-05-23T18:02:58.232Z,8.03
2018-05-23T18:05:24.973Z,8.60
2018-05-23T18:07:51.723Z,8.23
2018-05-23T18:10:18.481Z,8.17
2018-05-23T18:12:45.229Z,8.30
2018-05-23T18:15:11.983Z,7.70
2018-05-23T18:17:38.756Z,7.70
2018-05-23T18:20:05.529Z,8.30
2018-05-23T18:22:32.290Z,8.10
2018-05-23T18:24:59.045Z,8.43
2018-05-23T18:27:25.793Z,8.93
2018-05-23T18:29:52.597Z,9.63
2018-05-23T18:32:19.383Z,9.13
2018-05-23T18:34:46.132Z,9.83
2018-05-23T18:37:12.931Z,9.47
2018-05-23T18:39:39.682Z,9.90
2018-05-23T18:42:06.442Z,10.70
2018-05-23T18:44:33.207Z,9.60
2018-05-23T18:46:59.948Z,10.90
2018-05-23T18:49:26.721Z,10.03
2018-05-23T18:51:53.462Z,10.57
2018-05-23T18:54:20.210Z,11.07
2018-05-23T18:56:46.970Z,10.70
2018-05-23T18:59:13.826Z,11.20
2018-05-23T19:01:40.588Z,10.80
2018-05-23T19:04:07.334Z,10.70
2018-05-23T19:06:34.091Z,11.00
2018-05-23T19:09:00.835Z,11.63
2018-05-23T19:11:27.574Z,11.50
2018-05-23T19:13:54.442Z,10.40
2018-05-23T19:16:21.115Z,11.73
2018-05-23T19:18:47.942Z,11.00
2018-05-23T19:21:14.701Z,11.67
2018-05-23T19:23:41.454Z,11.27
2018-05-23T19:26:08.208Z,10.70
2018-05-23T19:28:34.970Z,11.20
2018-05-23T19:31:01.768Z,11.27
2018-05-23T19:33:28.532Z,11.90
2018-05-23T19:35:55.293Z,10.87
2018-05-23T19:38:22.056Z,12.50
2018-05-23T19:40:48.797Z,11.23
2018-05-23T19:43:15.536Z,11.50
2018-05-23T19:45:42.278Z,10.70
2018-05-23T19:48:09.091Z,11.43
2018-05-23T19:50:35.962Z,13.47
2018-05-23T19:53:02.711Z,11.70
2018-05-23T19:55:29.467Z,12.30
2018-05-23T19:57:56.251Z,11.00
2018-05-23T20:00:22.978Z,12.23
2018-05-23T20:02:49.739Z,11.70
2018-05-23T20:05:16.528Z,11.70
2018-05-23T20:07:43.295Z,11.23
2018-05-23T20:10:10.055Z,12.10
2018-05-23T20:12:36.799Z,11.70
2018-05-23T20:15:04.347Z,11.73
2018-05-23T20:17:31.182Z,11.13
2018-05-23T20:19:57.953Z,11.13
2018-05-23T20:22:24.722Z,11.10
2018-05-23T20:24:51.680Z,12.07
2018-05-23T20:27:18.437Z,11.57
2018-05-23T20:29:45.186Z,11.80
2018-05-23T20:32:11.935Z,12.10
2018-05-23T20:34:38.708Z,12.70
2018-05-23T20:37:05.453Z,11.73
2018-05-23T20:39:32.220Z,12.43
2018-05-23T20:41:58.958Z,12.13
2018-05-23T20:44:25.742Z,11.80
2018-05-23T20:46:52.507Z,12.00
2018-05-23T20:49:19.283Z,12.53
2018-05-23T20:51:46.031Z,11.80
2018-05-23T20:54:12.771Z,12.33
2018-05-23T20:56:39.510Z,12.50
2018-05-23T20:59:06.242Z,12.03
2018-05-23T21:01:33.019Z,12.80
2018-05-23T21:03:59.790Z,11.50
2018-05-23T21:06:26.516Z,12.17
2018-05-23T21:08:53.274Z,11.90
2018-05-23T21:11:20.056Z,11.47
2018-05-23T21:13:46.783Z,12.07
2018-05-23T21:16:13.507Z,11.83
2018-05-23T21:18:40.246Z,12.17
2018-05-23T21:21:07.048Z,12.77
2018-05-23T21:23:33.792Z,12.40
2018-05-23T21:26:00.537Z,12.17
2018-05-23T21:28:27.302Z,11.37
2018-05-23T21:30:54.040Z,13.00
2018-05-23T21:33:20.785Z,12.30
2018-05-23T21:35:47.522Z,12.43
2018-05-23T21:38:14.277Z,11.87
2018-05-23T21:40:41.008Z,13.60
2018-05-23T21:43:07.762Z,13.57
2018-05-23T21:45:34.508Z,13.60
2018-05-23T21:48:01.242Z,13.00
2018-05-23T21:50:27.994Z,13.07
2018-05-23T21:52:54.745Z,13.80
2018-05-23T21:55:21.480Z,13.40
2018-05-23T21:57:48.225Z,14.40
2018-05-23T22:00:14.953Z,13.67
2018-05-23T22:02:41.698Z,14.67
2018-05-23T22:05:08.426Z,14.50
2018-05-23T22:07:35.192Z,14.00
2018-05-23T22:10:01.933Z,14.57
2018-05-23T22:12:28.664Z,14.60
2018-05-23T22:14:55.409Z,15.20
2018-05-23T22:17:22.151Z,15.70
2018-05-23T22:19:48.892Z,14.40
2018-05-23T22:22:15.631Z,14.83
2018-05-23T22:24:42.373Z,15.07
2018-05-23T22:27:09.118Z,13.50
2018-05-23T22:29:35.875Z,15.13
2018-05-23T22:32:02.640Z,14.97
2018-05-23T22:34:29.378Z,14.20
2018-05-23T22:36:56.115Z,14.00
2018-05-23T22:39:22.850Z,15.57
2018-05-23T22:41:49.589Z,14.40
2018-05-23T22:44:16.346Z,14.67
2018-05-23T22:46:43.066Z,15.60
2018-05-23T22:49:09.807Z,15.00
2018-05-23T22:51:36.549Z,16.40
2018-05-23T22:54:03.310Z,14.97
2018-05-23T22:56:34.292Z,15.40
2018-05-23T22:59:01.039Z,13.27
2018-05-23T23:01:27.791Z,13.97
2018-05-23T23:03:54.531Z,13.60
2018-05-23T23:06:21.272Z,13.70
2018-05-23T23:08:48.027Z,14.43
2018-05-23T23:11:14.824Z,14.20
2018-05-23T23:13:41.624Z,14.20
2018-05-23T23:16:08.361Z,13.07
2018-05-23T23:18:35.192Z,14.83
2018-05-23T23:21:02.009Z,14.17
2018-05-23T23:23:28.730Z,15.33
2018-05-23T23:25:55.511Z,14.50
2018-05-23T23:28:22.259Z,14.83
2018-05-23T23:30:49.024Z,14.80
2018-05-23T23:33:15.760Z,15.57
2018-05-23T23:35:42.505Z,14.40
2018-05-23T23:38:09.254Z,13.63
2018-05-23T23:40:36.001Z,14.70
2018-05-23T23:43:02.732Z,14.77
2018-05-23T23:45:29.504Z,14.20
2018-05-23T23:47:56.240Z,15.20
2018-05-23T23:50:22.987Z,15.80
2018-05-23T23:52:49.712Z,15.60
2018-05-23T23:55:16.480Z,16.80
2018-05-23T23:57:43.211Z,15.00
